Sneads, Florida
Current Conditions -  °F | °C
As of 1:53 AM on Tuesday 27 Jan 2015 (Local Time) from KMAI Reporting Station
Clear Clear  
Wind Chill: 36°   Ceiling: Unl
Heat Index: 39°   Visibility: 10mi
Dew Point: 35°   Wind: 5mph
Humidity: 86%   Direction: 310°NW
Pressure: 30"   Gusts: NA
Location:  30.71°N, 84.92°W
Report Text: KMAI 270753Z AUTO 31004KT 10SM CLR 04/02 A3000 RMK AO2 SLP160 T00390017
Loading
Personal Weather Stations






























Interactive Weather Map New forecast layout! Learn more

10-Day Weather Forecast

Advertisements
Track Severe Weather on mobile